Time,TemperatureF,DewpointF,PressureIn,WindDirection,WindDirectionDegrees,WindSpeedMPH,WindSpeedGustMPH,Humidity,HourlyPrecipIn,Conditions,Clouds,dailyrainin,SoftwareType,DateUTC
2013-04-26 00:02:00,47.0,-99.9,-100.00,NNE,29,2.0,2.0,-999,0.00,,,0.01,,2013-04-26 05:02:00,
2013-04-26 00:13:00,47.0,-99.9,-100.00,NNE,29,2.0,2.0,-999,0.00,,,0.01,,2013-04-26 05:13:00,
2013-04-26 00:22:00,47.0,-99.9,-100.00,NNE,29,2.0,2.0,-999,0.00,,,0.01,,2013-04-26 05:22:00,
2013-04-26 00:32:00,47.0,-99.9,-100.00,ESE,105,2.0,5.0,-999,0.00,,,0.01,,2013-04-26 05:32:00,
2013-04-26 00:42:00,47.0,-99.9,-100.00,ESE,105,2.0,5.0,-999,0.00,,,0.01,,2013-04-26 05:42:00,
2013-04-26 00:52:00,47.0,-99.9,-100.00,ESE,105,2.0,5.0,-999,0.00,,,0.01,,2013-04-26 05:52:00,
2013-04-26 01:02:00,47.0,-99.9,-100.00,East,101,4.0,6.0,-999,0.00,,,0.01,,2013-04-26 06:02:00,
2013-04-26 01:12:00,47.0,-99.9,-100.00,East,101,4.0,6.0,-999,0.00,,,0.01,,2013-04-26 06:12:00,
2013-04-26 01:22:00,47.0,-99.9,-100.00,East,101,4.0,6.0,-999,0.00,,,0.01,,2013-04-26 06:22:00,
2013-04-26 01:32:00,47.0,-99.9,-100.00,ESE,119,5.0,6.0,-999,0.00,,,0.01,,2013-04-26 06:32:00,
2013-04-26 01:42:00,47.0,-99.9,-100.00,ESE,119,5.0,6.0,-999,0.00,,,0.01,,2013-04-26 06:42:00,
2013-04-26 01:52:00,47.0,-99.9,-100.00,ESE,119,5.0,6.0,-999,0.00,,,0.01,,2013-04-26 06:52:00,
2013-04-26 02:02:00,47.0,-99.9,-100.00,ESE,108,6.0,7.0,-999,0.00,,,0.00,,2013-04-26 07:02:00,
2013-04-26 02:12:00,47.0,-99.9,-100.00,ESE,108,6.0,7.0,-999,0.00,,,0.00,,2013-04-26 07:12:00,
2013-04-26 02:22:00,47.0,-99.9,-100.00,ESE,108,6.0,7.0,-999,0.00,,,0.00,,2013-04-26 07:22:00,
2013-04-26 02:32:00,47.0,-99.9,-100.00,SE,131,6.0,9.0,-999,0.00,,,0.00,,2013-04-26 07:32:00,
2013-04-26 02:42:00,47.0,-99.9,-100.00,SE,131,6.0,9.0,-999,0.00,,,0.00,,2013-04-26 07:42:00,
2013-04-26 02:52:00,47.0,-99.9,-100.00,SE,131,6.0,9.0,-999,0.00,,,0.00,,2013-04-26 07:52:00,
2013-04-26 03:03:00,47.0,-99.9,-100.00,SE,130,7.0,9.0,-999,0.00,,,0.00,,2013-04-26 08:03:00,
2013-04-26 03:12:00,47.0,-99.9,-100.00,SE,130,7.0,9.0,-999,0.00,,,0.00,,2013-04-26 08:12:00,
2013-04-26 03:22:00,47.0,-99.9,-100.00,SE,130,7.0,9.0,-999,0.00,,,0.00,,2013-04-26 08:22:00,
2013-04-26 03:30:00,47.0,-99.9,-100.00,SE,146,8.0,11.0,-999,0.00,,,0.00,,2013-04-26 08:30:00,
2013-04-26 03:32:00,47.0,-99.9,-100.00,SE,134,5.0,7.0,-999,0.00,,,0.00,,2013-04-26 08:32:00,
2013-04-26 03:42:00,47.0,-99.9,-100.00,SE,134,5.0,7.0,-999,0.00,,,0.00,,2013-04-26 08:42:00,
2013-04-26 03:52:00,47.0,-99.9,-100.00,SE,134,5.0,7.0,-999,0.00,,,0.00,,2013-04-26 08:52:00,
2013-04-26 04:02:00,47.0,-99.9,-100.00,SE,146,8.0,11.0,-999,0.00,,,0.00,,2013-04-26 09:02:00,
2013-04-26 04:12:00,47.0,-99.9,-100.00,SE,146,8.0,11.0,-999,0.00,,,0.00,,2013-04-26 09:12:00,
2013-04-26 04:22:00,47.0,-99.9,-100.00,SE,146,8.0,11.0,-999,0.00,,,0.00,,2013-04-26 09:22:00,
2013-04-26 05:03:00,46.0,-99.9,-100.00,SSE,163,6.0,9.0,-999,0.00,,,0.00,,2013-04-26 10:03:00,
2013-04-26 05:12:00,46.0,-99.9,-100.00,SSE,163,6.0,9.0,-999,0.00,,,0.00,,2013-04-26 10:12:00,
2013-04-26 05:23:00,46.0,-99.9,-100.00,SSE,163,6.0,9.0,-999,0.00,,,0.00,,2013-04-26 10:23:00,
2013-04-26 05:33:00,47.0,-99.9,-100.00,SSE,168,10.0,15.0,-999,0.00,,,0.00,,2013-04-26 10:33:00,
2013-04-26 05:42:00,47.0,-99.9,-100.00,SSE,168,10.0,15.0,-999,0.00,,,0.00,,2013-04-26 10:42:00,
2013-04-26 05:52:00,47.0,-99.9,-100.00,SSE,168,10.0,15.0,-999,0.00,,,0.00,,2013-04-26 10:52:00,
2013-04-26 06:02:00,48.0,-99.9,-100.00,South,173,6.0,13.0,-999,0.00,,,0.00,,2013-04-26 11:02:00,
2013-04-26 06:12:00,48.0,-99.9,-100.00,South,173,6.0,13.0,-999,0.00,,,0.00,,2013-04-26 11:12:00,
2013-04-26 06:22:00,48.0,-99.9,-100.00,South,173,6.0,13.0,-999,0.00,,,0.00,,2013-04-26 11:22:00,
2013-04-26 06:32:00,48.0,-99.9,-100.00,SSE,157,8.0,15.0,-999,0.00,,,0.00,,2013-04-26 11:32:00,
2013-04-26 06:42:00,48.0,-99.9,-100.00,SSE,157,8.0,15.0,-999,0.00,,,0.00,,2013-04-26 11:42:00,
2013-04-26 06:52:00,48.0,-99.9,-100.00,SSE,157,8.0,15.0,-999,0.00,,,0.00,,2013-04-26 11:52:00,
2013-04-26 07:02:00,48.0,-99.9,-100.00,SSE,163,7.0,12.0,-999,0.00,,,0.00,,2013-04-26 12:02:00,
2013-04-26 07:12:00,48.0,-99.9,-100.00,SSE,163,7.0,12.0,-999,0.00,,,0.00,,2013-04-26 12:12:00,
2013-04-26 07:22:00,48.0,-99.9,-100.00,SSE,163,7.0,12.0,-999,0.00,,,0.00,,2013-04-26 12:22:00,
2013-04-26 07:32:00,47.0,-99.9,-100.00,South,170,5.0,8.0,-999,0.00,,,0.00,,2013-04-26 12:32:00,
2013-04-26 07:42:00,47.0,-99.9,-100.00,South,170,5.0,8.0,-999,0.00,,,0.00,,2013-04-26 12:42:00,
2013-04-26 07:52:00,47.0,-99.9,-100.00,South,170,5.0,8.0,-999,0.00,,,0.00,,2013-04-26 12:52:00,
2013-04-26 08:01:00,48.0,-99.9,-100.00,SSE,167,9.0,14.0,-999,0.00,,,0.00,,2013-04-26 13:01:00,
2013-04-26 08:12:00,48.0,-99.9,-100.00,SSE,167,9.0,14.0,-999,0.00,,,0.00,,2013-04-26 13:12:00,
2013-04-26 08:22:00,48.0,-99.9,-100.00,SSE,167,9.0,14.0,-999,0.00,,,0.00,,2013-04-26 13:22:00,
2013-04-26 08:32:00,50.0,-99.9,-100.00,South,169,13.0,17.0,-999,0.00,,,0.00,,2013-04-26 13:32:00,
2013-04-26 08:42:00,50.0,-99.9,-100.00,South,169,13.0,17.0,-999,0.00,,,0.00,,2013-04-26 13:42:00,
2013-04-26 08:52:00,50.0,-99.9,-100.00,South,169,13.0,17.0,-999,0.00,,,0.00,,2013-04-26 13:52:00,
2013-04-26 09:02:00,51.0,-99.9,-100.00,SSE,156,9.0,14.0,-999,0.00,,,0.00,,2013-04-26 14:02:00,
2013-04-26 09:11:00,51.0,-99.9,-100.00,SSE,156,9.0,14.0,-999,0.00,,,0.00,,2013-04-26 14:11:00,
2013-04-26 09:22:00,51.0,-99.9,-100.00,SSE,156,9.0,14.0,-999,0.00,,,0.00,,2013-04-26 14:22:00,
2013-04-26 09:32:00,53.0,-99.9,-100.00,SSE,166,12.0,20.0,-999,0.00,,,0.00,,2013-04-26 14:32:00,
2013-04-26 09:42:00,53.0,-99.9,-100.00,SSE,166,12.0,20.0,-999,0.00,,,0.00,,2013-04-26 14:42:00,
2013-04-26 09:52:00,53.0,-99.9,-100.00,SSE,166,12.0,20.0,-999,0.00,,,0.00,,2013-04-26 14:52:00,
2013-04-26 10:02:00,55.0,-99.9,-100.00,South,170,15.0,19.0,-999,0.00,,,0.00,,2013-04-26 15:02:00,
2013-04-26 10:12:00,55.0,-99.9,-100.00,South,170,15.0,19.0,-999,0.00,,,0.00,,2013-04-26 15:12:00,
2013-04-26 10:22:00,55.0,-99.9,-100.00,South,170,15.0,19.0,-999,0.00,,,0.00,,2013-04-26 15:22:00,
2013-04-26 10:33:00,58.0,-99.9,-100.00,SSE,166,9.0,19.0,-999,0.00,,,0.00,,2013-04-26 15:33:00,
2013-04-26 10:43:00,58.0,-99.9,-100.00,SSE,166,9.0,19.0,-999,0.00,,,0.00,,2013-04-26 15:43:00,
2013-04-26 10:53:00,58.0,-99.9,-100.00,SSE,166,9.0,19.0,-999,0.00,,,0.00,,2013-04-26 15:53:00,
2013-04-26 11:03:00,58.0,-99.9,-100.00,South,190,6.0,15.0,-999,0.00,,,0.00,,2013-04-26 16:03:00,
2013-04-26 11:13:00,58.0,-99.9,-100.00,South,190,6.0,15.0,-999,0.00,,,0.00,,2013-04-26 16:13:00,
2013-04-26 11:23:00,58.0,-99.9,-100.00,South,190,6.0,15.0,-999,0.00,,,0.00,,2013-04-26 16:23:00,
2013-04-26 11:33:00,58.0,-99.9,-100.00,SSW,213,17.0,22.0,-999,0.00,,,0.00,,2013-04-26 16:33:00,
2013-04-26 11:42:00,58.0,-99.9,-100.00,SSW,213,17.0,22.0,-999,0.00,,,0.00,,2013-04-26 16:42:00,
2013-04-26 11:53:00,58.0,-99.9,-100.00,SSW,213,17.0,22.0,-999,0.00,,,0.00,,2013-04-26 16:53:00,
2013-04-26 12:02:00,60.0,-99.9,-100.00,SW,214,13.0,19.0,-999,0.00,,,0.00,,2013-04-26 17:02:00,
2013-04-26 12:12:00,60.0,-99.9,-100.00,SW,214,13.0,19.0,-999,0.00,,,0.00,,2013-04-26 17:12:00,
2013-04-26 12:22:00,60.0,-99.9,-100.00,SW,214,13.0,19.0,-999,0.00,,,0.00,,2013-04-26 17:22:00,
2013-04-26 12:32:00,59.0,-99.9,-100.00,SSW,213,18.0,23.0,-999,0.00,,,0.00,,2013-04-26 17:32:00,
2013-04-26 12:42:00,59.0,-99.9,-100.00,SSW,213,18.0,23.0,-999,0.00,,,0.00,,2013-04-26 17:42:00,
2013-04-26 12:52:00,59.0,-99.9,-100.00,SSW,213,18.0,23.0,-999,0.00,,,0.00,,2013-04-26 17:52:00,
2013-04-26 13:02:00,61.0,-99.9,-100.00,SW,214,11.0,25.0,-999,0.00,,,0.00,,2013-04-26 18:02:00,
2013-04-26 13:12:00,61.0,-99.9,-100.00,SW,214,11.0,25.0,-999,0.00,,,0.00,,2013-04-26 18:12:00,
2013-04-26 13:22:00,61.0,-99.9,-100.00,SW,214,11.0,25.0,-999,0.00,,,0.00,,2013-04-26 18:22:00,
2013-04-26 13:33:00,59.0,-99.9,-100.00,SSW,212,15.0,20.0,-999,0.00,,,0.00,,2013-04-26 18:33:00,
2013-04-26 13:42:00,59.0,-99.9,-100.00,SSW,212,15.0,20.0,-999,0.00,,,0.00,,2013-04-26 18:42:00,
2013-04-26 13:52:00,59.0,-99.9,-100.00,SSW,212,15.0,20.0,-999,0.00,,,0.00,,2013-04-26 18:52:00,
2013-04-26 14:02:00,61.0,-99.9,-100.00,SW,214,19.0,27.0,-999,0.00,,,0.00,,2013-04-26 19:02:00,
2013-04-26 14:12:00,61.0,-99.9,-100.00,SW,214,19.0,27.0,-999,0.00,,,0.00,,2013-04-26 19:12:00,
2013-04-26 14:22:00,61.0,-99.9,-100.00,SW,214,19.0,27.0,-999,0.00,,,0.00,,2013-04-26 19:22:00,
2013-04-26 14:32:00,60.0,-99.9,-100.00,SW,220,19.0,23.0,-999,0.00,,,0.00,,2013-04-26 19:32:00,
2013-04-26 14:42:00,60.0,-99.9,-100.00,SW,220,19.0,23.0,-999,0.00,,,0.00,,2013-04-26 19:42:00,
2013-04-26 14:52:00,60.0,-99.9,-100.00,SW,220,19.0,23.0,-999,0.00,,,0.00,,2013-04-26 19:52:00,
2013-04-26 15:02:00,59.0,-99.9,-100.00,SW,219,20.0,24.0,-999,0.00,,,0.00,,2013-04-26 20:02:00,
2013-04-26 15:11:00,59.0,-99.9,-100.00,SW,219,20.0,24.0,-999,0.00,,,0.00,,2013-04-26 20:11:00,
2013-04-26 15:22:00,59.0,-99.9,-100.00,SW,219,20.0,24.0,-999,0.00,,,0.00,,2013-04-26 20:22:00,
2013-04-26 15:30:00,62.0,-99.9,-100.00,SSW,209,13.0,22.0,-999,0.00,,,0.00,,2013-04-26 20:30:00,
2013-04-26 15:32:00,63.0,-99.9,-100.00,SSE,161,10.0,27.0,-999,0.00,,,0.00,,2013-04-26 20:32:00,
2013-04-26 15:42:00,63.0,-99.9,-100.00,SSE,161,10.0,27.0,-999,0.00,,,0.00,,2013-04-26 20:42:00,
2013-04-26 15:52:00,63.0,-99.9,-100.00,SSE,161,10.0,27.0,-999,0.00,,,0.00,,2013-04-26 20:52:00,
2013-04-26 16:02:00,62.0,-99.9,-100.00,SSW,209,13.0,22.0,-999,0.00,,,0.00,,2013-04-26 21:02:00,
2013-04-26 16:11:00,62.0,-99.9,-100.00,SSW,209,13.0,22.0,-999,0.00,,,0.00,,2013-04-26 21:11:00,
2013-04-26 16:22:00,62.0,-99.9,-100.00,SSW,209,13.0,22.0,-999,0.00,,,0.00,,2013-04-26 21:22:00,
2013-04-26 17:03:00,62.0,-99.9,-100.00,South,189,9.0,18.0,-999,0.00,,,0.00,,2013-04-26 22:03:00,
2013-04-26 17:13:00,62.0,-99.9,-100.00,South,189,9.0,18.0,-999,0.00,,,0.00,,2013-04-26 22:13:00,
2013-04-26 17:23:00,62.0,-99.9,-100.00,South,189,9.0,18.0,-999,0.00,,,0.00,,2013-04-26 22:23:00,
2013-04-26 17:33:00,63.0,-99.9,-100.00,SSE,166,13.0,24.0,-999,0.00,,,0.00,,2013-04-26 22:33:00,
2013-04-26 17:42:00,63.0,-99.9,-100.00,SSE,166,13.0,24.0,-999,0.00,,,0.00,,2013-04-26 22:42:00,
2013-04-26 17:52:00,63.0,-99.9,-100.00,SSE,166,13.0,24.0,-999,0.00,,,0.00,,2013-04-26 22:52:00,
2013-04-26 18:02:00,63.0,-99.9,-100.00,SSE,166,13.0,21.0,-999,0.00,,,0.00,,2013-04-26 23:02:00,
2013-04-26 18:12:00,63.0,-99.9,-100.00,SSE,166,13.0,21.0,-999,0.00,,,0.00,,2013-04-26 23:12:00,
2013-04-26 18:22:00,63.0,-99.9,-100.00,SSE,166,13.0,21.0,-999,0.00,,,0.00,,2013-04-26 23:22:00,
2013-04-26 18:32:00,62.0,-99.9,-100.00,South,177,7.0,16.0,-999,0.00,,,0.00,,2013-04-26 23:32:00,
2013-04-26 18:42:00,62.0,-99.9,-100.00,South,177,7.0,16.0,-999,0.00,,,0.00,,2013-04-26 23:42:00,
2013-04-26 18:52:00,62.0,-99.9,-100.00,South,177,7.0,16.0,-999,0.00,,,0.00,,2013-04-26 23:52:00,
2013-04-26 19:01:00,61.0,-99.9,-100.00,SSW,209,9.0,20.0,-999,0.00,,,0.00,,2013-04-27 00:01:00,
2013-04-26 19:12:00,61.0,-99.9,-100.00,SSW,209,9.0,20.0,-999,0.00,,,0.00,,2013-04-27 00:12:00,
2013-04-26 19:22:00,61.0,-99.9,-100.00,SSW,209,9.0,20.0,-999,0.00,,,0.00,,2013-04-27 00:22:00,
2013-04-26 19:32:00,61.0,-99.9,-100.00,South,170,7.0,15.0,-999,0.00,,,0.00,,2013-04-27 00:32:00,
2013-04-26 19:42:00,61.0,-99.9,-100.00,South,170,7.0,15.0,-999,0.00,,,0.00,,2013-04-27 00:42:00,
2013-04-26 19:52:00,61.0,-99.9,-100.00,South,170,7.0,15.0,-999,0.00,,,0.00,,2013-04-27 00:52:00,
2013-04-26 20:01:00,58.0,-99.9,-100.00,SSW,206,7.0,16.0,-999,0.00,,,0.00,,2013-04-27 01:01:00,
2013-04-26 20:12:00,58.0,-99.9,-100.00,SSW,206,7.0,16.0,-999,0.00,,,0.00,,2013-04-27 01:12:00,
2013-04-26 20:22:00,58.0,-99.9,-100.00,SSW,206,7.0,16.0,-999,0.00,,,0.00,,2013-04-27 01:22:00,
2013-04-26 20:32:00,58.0,-99.9,-100.00,SW,214,6.0,10.0,-999,0.00,,,0.00,,2013-04-27 01:32:00,
2013-04-26 20:42:00,58.0,-99.9,-100.00,SW,214,6.0,10.0,-999,0.00,,,0.00,,2013-04-27 01:42:00,
2013-04-26 20:52:00,58.0,-99.9,-100.00,SW,214,6.0,10.0,-999,0.00,,,0.00,,2013-04-27 01:52:00,
2013-04-26 21:02:00,58.0,-99.9,-100.00,SSW,193,4.0,6.0,-999,0.00,,,0.00,,2013-04-27 02:02:00,
2013-04-26 21:11:00,58.0,-99.9,-100.00,SSW,193,4.0,6.0,-999,0.00,,,0.00,,2013-04-27 02:11:00,
2013-04-26 21:22:00,58.0,-99.9,-100.00,SSW,193,4.0,6.0,-999,0.00,,,0.00,,2013-04-27 02:22:00,
2013-04-26 21:30:00,57.0,-99.9,-100.00,SSE,164,3.0,6.0,-999,0.00,,,0.00,,2013-04-27 02:30:00,
2013-04-26 21:32:00,58.0,-99.9,-100.00,SSE,162,5.0,8.0,-999,0.00,,,0.00,,2013-04-27 02:32:00,
2013-04-26 21:42:00,58.0,-99.9,-100.00,SSE,162,5.0,8.0,-999,0.00,,,0.00,,2013-04-27 02:42:00,
2013-04-26 21:52:00,58.0,-99.9,-100.00,SSE,162,5.0,8.0,-999,0.00,,,0.00,,2013-04-27 02:52:00,
2013-04-26 22:02:00,57.0,-99.9,-100.00,SSE,164,3.0,6.0,-999,0.00,,,0.00,,2013-04-27 03:02:00,
2013-04-26 22:11:00,57.0,-99.9,-100.00,SSE,164,3.0,6.0,-999,0.00,,,0.00,,2013-04-27 03:11:00,
2013-04-26 22:22:00,57.0,-99.9,-100.00,SSE,164,3.0,6.0,-999,0.00,,,0.00,,2013-04-27 03:22:00,
2013-04-26 23:00:00,56.0,-99.9,-100.00,South,177,2.0,4.0,-999,0.00,,,0.00,,2013-04-27 04:00:00,
2013-04-26 23:03:00,57.0,-99.9,-100.00,South,172,4.0,8.0,-999,0.00,,,0.00,,2013-04-27 04:03:00,
2013-04-26 23:13:00,57.0,-99.9,-100.00,South,172,4.0,8.0,-999,0.00,,,0.00,,2013-04-27 04:13:00,
2013-04-26 23:23:00,57.0,-99.9,-100.00,South,172,4.0,8.0,-999,0.00,,,0.00,,2013-04-27 04:23:00,
2013-04-26 23:33:00,56.0,-99.9,-100.00,South,177,2.0,4.0,-999,0.00,,,0.00,,2013-04-27 04:33:00,
2013-04-26 23:43:00,56.0,-99.9,-100.00,South,177,2.0,4.0,-999,0.00,,,0.00,,2013-04-27 04:43:00,
2013-04-26 23:53:00,56.0,-99.9,-100.00,South,177,2.0,4.0,-999,0.00,,,0.00,,2013-04-27 04:53:00,